Archival Weather

Tokyo Intl

Tokyo Intl, Japan (RJTT)

Report from: Friday, June 24, 2022 11:27 PM JST
Current time: Tuesday, August 16, 2022 9:19 AM JST

Current weather
Weather history
Weather forecast

Temperature27.0°C (80.6°F)
Heat index29.7°C (85.5°F)
Dew point23.0°C (73.4°F)
Winds 18 kts (9.3 m/s, 20.7 mph) Vrb
Wind gusts 31 kts (15.9 m/s, 35.7 mph)
Winds variableWinds variable from South (180°) to West-Southwest (240°)
Visibility6.2 mi. (10 km)
Clouds Few clouds 1,000 ft. (305 m)
Altimeter29.62 in.Hg (1003 mB)
Relative humidity79 %
Density altitude2,107 ft. (642 m)
Remarks Special weather observation
Flight conditions Visual Meteorological Conditions
Raw dataSPJP31 KWBC 241437 SPECI RJTT 241427Z 22018G31KT 180V240 9999 FEW010 27/23 Q1003 RMK 1CU010 A2964
An error has occurred. This application may no longer respond until reloaded. Reload 🗙